Time;durP1;ratioP1;P1;durP2;ratioP2;P2;SDS_P1;SDS_P2;PMS_P1;PMS_P2;Temp;Humidity;BMP_temperature;BMP_pressure;BME280_temperature;BME280_humidity;BME280_pressure;Samples;Min_cycle;Max_cycle;Signal;HPM_P1;HPM_P2
2021/08/11 00:00:11;;;;;;;10.77;8.30;;;13.20;99.90;;;;;;5074096;28;20039;-71
2021/08/11 00:02:38;;;;;;;9.27;8.10;;;13.20;99.90;;;;;;5050984;28;20106;-71
2021/08/11 00:05:05;;;;;;;11.30;8.48;;;13.20;99.90;;;;;;5084014;28;20068;-71
2021/08/11 00:07:30;;;;;;;12.02;9.68;;;13.10;99.90;;;;;;5076714;28;20119;-72
2021/08/11 00:09:56;;;;;;;8.80;7.90;;;13.10;99.90;;;;;;5052434;28;20126;-72
2021/08/11 00:12:22;;;;;;;9.35;7.68;;;13.10;99.90;;;;;;5038884;28;20057;-71
2021/08/11 00:14:49;;;;;;;8.90;6.72;;;13.10;99.90;;;;;;5069321;28;20079;-71
2021/08/11 00:17:15;;;;;;;9.40;8.05;;;13.00;99.90;;;;;;5071103;28;20067;-71
2021/08/11 00:19:40;;;;;;;9.90;8.18;;;13.00;99.90;;;;;;5083045;28;20597;-72
2021/08/11 00:22:06;;;;;;;12.25;8.07;;;13.00;99.90;;;;;;5065363;28;20032;-73
2021/08/11 00:24:32;;;;;;;11.75;9.05;;;13.00;99.90;;;;;;5072702;28;20047;-71
2021/08/11 00:26:59;;;;;;;10.27;7.68;;;13.00;99.90;;;;;;5079352;28;20047;-71
2021/08/11 00:29:25;;;;;;;9.68;8.30;;;12.90;99.90;;;;;;5070499;28;20086;-72
2021/08/11 00:31:51;;;;;;;13.68;9.80;;;12.90;99.90;;;;;;5076777;28;20034;-73
2021/08/11 00:34:17;;;;;;;13.30;10.43;;;12.90;99.90;;;;;;5069930;28;20046;-72
2021/08/11 00:36:44;;;;;;;14.00;9.65;;;12.80;99.90;;;;;;5074792;28;20047;-72
2021/08/11 00:39:09;;;;;;;10.57;8.73;;;12.80;99.90;;;;;;5074125;28;20071;-72
2021/08/11 00:41:40;;;;;;;9.80;8.43;;;12.70;99.90;;;;;;5050924;28;20497;-72
2021/08/11 00:44:07;;;;;;;10.80;8.07;;;12.70;99.90;;;;;;5056281;28;20059;-72
2021/08/11 00:46:33;;;;;;;7.85;6.82;;;12.70;99.90;;;;;;5076254;28;20072;-72
2021/08/11 00:49:00;;;;;;;13.48;8.82;;;12.70;99.90;;;;;;5074783;28;20036;-72
2021/08/11 00:51:25;;;;;;;10.82;8.63;;;12.70;99.90;;;;;;5077601;28;20040;-72
2021/08/11 00:53:54;;;;;;;12.80;9.85;;;12.70;99.90;;;;;;5075097;28;20133;-72
2021/08/11 00:56:21;;;;;;;14.80;10.13;;;12.60;99.90;;;;;;5075676;28;20044;-72
2021/08/11 00:58:50;;;;;;;15.52;11.57;;;12.60;99.90;;;;;;5067376;28;20071;-71
2021/08/11 01:01:16;;;;;;;14.80;9.80;;;12.60;99.90;;;;;;5072893;28;20060;-72
2021/08/11 01:03:43;;;;;;;14.38;9.98;;;12.60;99.90;;;;;;5069578;28;20538;-72
2021/08/11 01:06:09;;;;;;;14.25;9.95;;;12.60;99.90;;;;;;5070211;28;20036;-72
2021/08/11 01:08:37;;;;;;;11.35;9.45;;;12.60;99.90;;;;;;5063865;28;20047;-71
2021/08/11 01:11:04;;;;;;;15.25;8.40;;;12.60;99.90;;;;;;5067495;28;20143;-71
2021/08/11 01:13:32;;;;;;;16.52;11.60;;;12.60;99.90;;;;;;5080579;28;20518;-71
2021/08/11 01:15:58;;;;;;;13.02;10.23;;;12.60;99.90;;;;;;5075527;28;20371;-72
2021/08/11 01:18:23;;;;;;;12.80;10.63;;;12.60;99.90;;;;;;5077800;28;20032;-71
2021/08/11 01:21:07;;;;;;;13.35;10.02;;;12.50;99.90;;;;;;5076037;28;20090;-72
2021/08/11 01:23:45;;;;;;;15.48;10.88;;;12.50;99.90;;;;;;5074944;28;20040;-71
2021/08/11 01:26:22;;;;;;;15.15;11.13;;;12.50;99.90;;;;;;5072897;28;20056;-71
2021/08/11 01:28:56;;;;;;;;;;;12.50;99.90;;;;;;5074619;28;20482;-72
2021/08/11 01:31:40;;;;;;;13.30;9.88;;;12.50;99.90;;;;;;5078865;28;19931;-71
2021/08/11 01:34:20;;;;;;;13.30;9.40;;;12.40;99.90;;;;;;5068259;28;21201;-72
2021/08/11 01:36:58;;;;;;;12.02;9.88;;;12.40;99.90;;;;;;5074140;28;22049;-72
2021/08/11 01:39:52;;;;;;;14.52;10.02;;;12.40;99.90;;;;;;5076351;28;20032;-73
2021/08/11 01:42:23;;;;;;;17.63;11.63;;;12.40;99.90;;;;;;5076122;28;20029;-72
2021/08/11 01:45:01;;;;;;;12.10;9.52;;;12.40;99.90;;;;;;5074506;28;20048;-73
2021/08/11 01:47:36;;;;;;;11.30;8.40;;;12.30;99.90;;;;;;5075142;28;20048;-73
2021/08/11 01:50:04;;;;;;;13.77;10.95;;;12.30;99.90;;;;;;5071606;28;20063;-73
2021/08/11 01:52:29;;;;;;;12.15;10.02;;;12.30;99.90;;;;;;5078763;28;20044;-73
2021/08/11 01:54:57;;;;;;;12.00;8.40;;;12.30;99.90;;;;;;5073799;28;20032;-73
2021/08/11 01:57:24;;;;;;;10.63;8.90;;;12.30;99.90;;;;;;5072079;28;20045;-73
2021/08/11 01:59:54;;;;;;;9.10;7.28;;;12.40;99.90;;;;;;5059344;28;20530;-71
2021/08/11 02:02:22;;;;;;;9.18;7.43;;;12.30;99.90;;;;;;5072909;28;20040;-71
2021/08/11 02:04:48;;;;;;;11.88;7.53;;;12.30;99.90;;;;;;5069048;28;20032;-71
2021/08/11 02:07:15;;;;;;;10.23;8.82;;;12.30;99.90;;;;;;5066656;28;20107;-72
2021/08/11 02:09:42;;;;;;;9.50;7.07;;;12.30;99.90;;;;;;5085472;28;20044;-72
2021/08/11 02:12:09;;;;;;;10.10;8.52;;;12.30;99.90;;;;;;5076045;28;20075;-72
2021/08/11 02:14:38;;;;;;;11.65;9.02;;;12.30;99.90;;;;;;5061435;28;20042;-71
2021/08/11 02:17:06;;;;;;;12.45;9.13;;;12.30;99.90;;;;;;5080779;28;20119;-71
2021/08/11 02:19:33;;;;;;;13.05;10.25;;;12.20;99.90;;;;;;5080305;28;20183;-71
2021/08/11 02:21:58;;;;;;;12.18;9.57;;;12.20;99.90;;;;;;5082609;28;20108;-72
2021/08/11 02:24:25;;;;;;;16.00;10.15;;;12.20;99.90;;;;;;5066930;28;20061;-71
2021/08/11 02:27:01;;;;;;;13.88;11.60;;;12.20;99.90;;;;;;5079403;28;20064;-71
2021/08/11 02:30:09;;;;;;;13.43;10.02;;;12.20;99.90;;;;;;5083137;28;20028;-72
2021/08/11 02:32:51;;;;;;;15.88;12.10;;;12.20;99.90;;;;;;5081328;28;20089;-72
2021/08/11 02:35:31;;;;;;;16.23;11.35;;;12.20;99.90;;;;;;5081171;28;20040;-72
2021/08/11 02:38:04;;;;;;;13.93;9.65;;;12.10;99.90;;;;;;5068007;28;20044;-72
2021/08/11 02:40:50;;;;;;;16.35;12.27;;;12.10;99.90;;;;;;5073113;28;20040;-71
2021/08/11 02:43:40;;;;;;;17.00;11.18;;;12.10;99.90;;;;;;5076605;28;20051;-71
2021/08/11 02:46:23;;;;;;;17.45;11.25;;;12.20;99.90;;;;;;5076805;28;20483;-71
2021/08/11 02:49:01;;;;;;;16.73;10.45;;;12.10;99.90;;;;;;5078165;28;20037;-71
2021/08/11 02:51:30;;;;;;;16.55;11.65;;;12.10;99.90;;;;;;5086782;28;20032;-71
2021/08/11 02:54:01;;;;;;;18.98;11.90;;;12.10;99.90;;;;;;5074640;28;20434;-72
2021/08/11 02:56:27;;;;;;;18.10;14.55;;;12.10;99.90;;;;;;5078823;28;20090;-72
2021/08/11 02:58:55;;;;;;;29.40;19.55;;;12.10;99.90;;;;;;5077288;28;20040;-73
2021/08/11 03:01:21;;;;;;;30.88;19.63;;;12.10;99.90;;;;;;5079692;28;20069;-72
2021/08/11 03:03:47;;;;;;;26.10;17.30;;;12.20;99.90;;;;;;5075064;28;21010;-72
2021/08/11 03:06:13;;;;;;;34.67;21.75;;;12.30;99.90;;;;;;5076344;28;20036;-72
2021/08/11 03:08:39;;;;;;;35.75;22.08;;;12.30;99.90;;;;;;5074755;28;20047;-73
2021/08/11 03:11:11;;;;;;;31.30;20.25;;;12.40;99.90;;;;;;5078039;28;20036;-73
2021/08/11 03:13:42;;;;;;;34.25;22.35;;;12.40;99.90;;;;;;5073577;28;20079;-72
2021/08/11 03:16:13;;;;;;;29.60;21.13;;;12.40;99.90;;;;;;5071459;28;20524;-73
2021/08/11 03:18:41;;;;;;;39.05;22.33;;;12.50;99.90;;;;;;5073694;28;20063;-73
2021/08/11 03:21:07;;;;;;;33.88;22.17;;;12.50;99.90;;;;;;5081044;28;20043;-73
2021/08/11 03:23:34;;;;;;;37.72;21.85;;;12.50;99.90;;;;;;5057233;28;20051;-71
2021/08/11 03:25:59;;;;;;;23.33;17.60;;;12.50;99.90;;;;;;5064748;28;20644;-71
2021/08/11 03:28:25;;;;;;;31.98;21.27;;;12.50;99.90;;;;;;5073846;28;21084;-71
2021/08/11 03:30:51;;;;;;;25.25;18.48;;;12.50;99.90;;;;;;5056868;28;20094;-71
2021/08/11 03:33:17;;;;;;;34.92;21.80;;;12.50;99.90;;;;;;5083441;28;20406;-71
2021/08/11 03:35:43;;;;;;;33.47;21.10;;;12.60;99.90;;;;;;5075114;28;20051;-70
2021/08/11 03:38:09;;;;;;;33.53;21.58;;;12.60;99.90;;;;;;5077530;28;20040;-72
2021/08/11 03:40:35;;;;;;;32.28;20.25;;;12.60;99.90;;;;;;5049336;28;20495;-71
2021/08/11 03:43:01;;;;;;;32.67;22.05;;;12.60;99.90;;;;;;5061426;28;20040;-71
2021/08/11 03:45:27;;;;;;;27.42;19.40;;;12.60;99.90;;;;;;5059504;28;20049;-71
2021/08/11 03:47:56;;;;;;;25.60;20.05;;;12.60;99.90;;;;;;5069166;28;20055;-72
2021/08/11 03:50:25;;;;;;;30.60;20.27;;;12.60;99.90;;;;;;5074993;28;20052;-71
2021/08/11 03:52:52;;;;;;;30.13;20.00;;;12.70;99.90;;;;;;5064725;28;20094;-73
2021/08/11 03:55:18;;;;;;;30.27;20.73;;;12.70;99.90;;;;;;5086169;28;20038;-71
2021/08/11 03:57:44;;;;;;;34.20;21.20;;;12.70;99.90;;;;;;5069914;28;20037;-71
2021/08/11 04:00:11;;;;;;;29.88;21.10;;;12.70;99.90;;;;;;5045621;28;20048;-71
2021/08/11 04:02:38;;;;;;;28.83;20.38;;;12.70;99.90;;;;;;5077291;28;20403;-71
2021/08/11 04:05:08;;;;;;;28.85;20.67;;;12.80;99.90;;;;;;5049252;28;20089;-71
2021/08/11 04:07:37;;;;;;;24.80;18.63;;;12.80;99.90;;;;;;5062509;28;20109;-72
2021/08/11 04:10:08;;;;;;;28.27;19.70;;;12.80;99.90;;;;;;5076915;28;20037;-71
2021/08/11 04:12:34;;;;;;;29.42;21.10;;;12.80;99.90;;;;;;5072759;28;20043;-71
2021/08/11 04:15:00;;;;;;;25.42;19.10;;;12.80;99.90;;;;;;5060031;28;20068;-71
2021/08/11 04:17:26;;;;;;;26.30;19.90;;;12.80;99.90;;;;;;5069189;28;20552;-72
2021/08/11 04:19:52;;;;;;;26.85;20.23;;;12.80;99.90;;;;;;5077048;28;20045;-72
2021/08/11 04:22:21;;;;;;;25.90;19.00;;;12.90;99.90;;;;;;5076330;28;20554;-72
2021/08/11 04:24:47;;;;;;;22.70;17.73;;;12.90;99.90;;;;;;5074436;28;20626;-72
2021/08/11 04:27:13;;;;;;;30.38;19.88;;;12.90;99.90;;;;;;5083847;28;20147;-71
2021/08/11 04:29:42;;;;;;;27.05;19.63;;;12.90;99.90;;;;;;5076874;28;20044;-72
2021/08/11 04:32:11;;;;;;;23.30;18.67;;;12.90;99.90;;;;;;5079038;28;20036;-72
2021/08/11 04:34:36;;;;;;;28.70;19.40;;;12.90;99.90;;;;;;5072957;28;20433;-73
2021/08/11 04:37:06;;;;;;;24.52;18.02;;;12.90;99.90;;;;;;5077537;28;20072;-72
2021/08/11 04:39:32;;;;;;;25.30;19.80;;;12.90;99.90;;;;;;5076440;28;20083;-72
2021/08/11 04:41:58;;;;;;;31.05;20.95;;;12.90;99.90;;;;;;5086222;28;20089;-72
2021/08/11 04:44:25;;;;;;;27.15;19.73;;;13.00;99.90;;;;;;5075632;28;20565;-72
2021/08/11 04:46:51;;;;;;;30.45;21.17;;;13.00;99.90;;;;;;5077785;28;20032;-72
2021/08/11 04:49:17;;;;;;;25.73;19.92;;;13.00;99.90;;;;;;5061259;28;20127;-71
2021/08/11 04:51:43;;;;;;;36.33;20.90;;;13.00;99.90;;;;;;5072924;28;20120;-71
2021/08/11 04:54:12;;;;;;;26.17;19.05;;;13.10;99.90;;;;;;5074317;28;20036;-71
2021/08/11 04:56:38;;;;;;;21.90;17.02;;;13.00;99.90;;;;;;5077325;28;20040;-71
2021/08/11 04:59:05;;;;;;;26.17;18.77;;;13.00;99.90;;;;;;5076483;28;20096;-71
2021/08/11 05:01:31;;;;;;;27.02;19.58;;;13.10;99.90;;;;;;5079146;28;20128;-71
2021/08/11 05:03:56;;;;;;;25.25;19.50;;;13.10;99.90;;;;;;5082407;28;20119;-72
2021/08/11 05:06:22;;;;;;;26.25;18.85;;;13.10;99.90;;;;;;5082352;28;20113;-72
2021/08/11 05:08:49;;;;;;;23.70;18.45;;;13.10;99.90;;;;;;5075314;28;20177;-72
2021/08/11 05:11:22;;;;;;;24.95;18.02;;;13.00;99.90;;;;;;5064396;28;20082;-73
2021/08/11 05:13:48;;;;;;;28.08;19.73;;;13.10;99.90;;;;;;5054363;28;20041;-72
2021/08/11 05:16:13;;;;;;;22.88;16.83;;;13.10;99.90;;;;;;5069657;28;20044;-72
2021/08/11 05:18:40;;;;;;;32.15;17.98;;;13.00;99.90;;;;;;5086628;28;20032;-72
2021/08/11 05:21:06;;;;;;;27.85;20.65;;;13.10;99.90;;;;;;5077611;28;20487;-72
2021/08/11 05:23:32;;;;;;;26.20;19.85;;;13.10;99.90;;;;;;5059196;28;20048;-73
2021/08/11 05:26:00;;;;;;;23.85;18.65;;;13.00;99.90;;;;;;5081839;28;20046;-73
2021/08/11 05:28:26;;;;;;;24.17;17.95;;;13.00;99.90;;;;;;5060430;28;20044;-73
2021/08/11 05:30:52;;;;;;;28.45;19.88;;;13.10;99.90;;;;;;5073009;28;20043;-73
2021/08/11 05:33:18;;;;;;;22.83;18.42;;;13.10;99.90;;;;;;5077763;28;20053;-73
2021/08/11 05:35:44;;;;;;;23.30;17.52;;;13.10;99.90;;;;;;5050463;28;20047;-71
2021/08/11 05:38:11;;;;;;;25.23;19.52;;;13.20;99.90;;;;;;5070101;28;20154;-72
2021/08/11 05:40:37;;;;;;;25.15;19.80;;;13.20;99.90;;;;;;5078163;28;20066;-72
2021/08/11 05:43:03;;;;;;;25.05;18.77;;;13.30;99.90;;;;;;5080046;28;20483;-72
2021/08/11 05:45:29;;;;;;;21.55;18.10;;;13.30;99.90;;;;;;5059818;28;20415;-72
2021/08/11 05:47:55;;;;;;;28.20;20.30;;;13.30;99.90;;;;;;5075981;28;20044;-73
2021/08/11 05:50:22;;;;;;;28.55;21.75;;;13.30;99.90;;;;;;5086939;28;20145;-72
2021/08/11 05:52:48;;;;;;;26.25;19.77;;;13.30;99.90;;;;;;5084283;28;20121;-72
2021/08/11 05:55:13;;;;;;;30.60;21.73;;;13.40;99.90;;;;;;5063202;28;20506;-71
2021/08/11 05:57:40;;;;;;;34.65;20.13;;;13.40;99.90;;;;;;5068387;28;20127;-74
2021/08/11 06:00:09;;;;;;;27.92;21.63;;;13.50;99.90;;;;;;5085350;28;20105;-71
2021/08/11 06:02:41;;;;;;;29.55;21.58;;;13.60;99.90;;;;;;5082551;28;20055;-71
2021/08/11 06:05:08;;;;;;;29.90;21.45;;;13.70;99.90;;;;;;5071916;28;20044;-71
2021/08/11 06:07:34;;;;;;;26.05;19.63;;;13.70;99.90;;;;;;5085291;28;20036;-71
2021/08/11 06:10:03;;;;;;;26.42;20.52;;;13.80;99.90;;;;;;5075854;28;20040;-72
2021/08/11 06:12:28;;;;;;;28.17;21.27;;;13.80;99.90;;;;;;5078088;28;20173;-72
2021/08/11 06:14:54;;;;;;;28.52;19.15;;;13.90;99.90;;;;;;5052600;28;20089;-73
2021/08/11 06:17:21;;;;;;;21.98;17.98;;;14.00;99.90;;;;;;5057778;28;20067;-72
2021/08/11 06:19:47;;;;;;;25.08;20.45;;;14.10;99.90;;;;;;5073478;28;20167;-74
2021/08/11 06:22:15;;;;;;;26.30;20.17;;;14.20;99.90;;;;;;5071097;28;20036;-72
2021/08/11 06:24:41;;;;;;;22.80;20.27;;;14.20;99.90;;;;;;5073758;28;20034;-72
2021/08/11 06:27:07;;;;;;;27.80;20.95;;;14.40;99.90;;;;;;5061544;28;20058;-72
2021/08/11 06:29:33;;;;;;;24.55;19.35;;;14.50;99.90;;;;;;5060862;28;20129;-72
2021/08/11 06:31:59;;;;;;;29.67;19.85;;;14.60;99.90;;;;;;5072531;28;20569;-71
2021/08/11 06:34:25;;;;;;;23.20;18.80;;;14.70;99.90;;;;;;5054940;28;20068;-72
2021/08/11 06:36:51;;;;;;;27.30;22.08;;;14.90;99.90;;;;;;5071724;28;20048;-71
2021/08/11 06:39:17;;;;;;;22.52;18.95;;;15.00;99.90;;;;;;5068908;28;20068;-72
2021/08/11 06:41:43;;;;;;;24.15;16.30;;;15.10;99.90;;;;;;5074630;28;20037;-72
2021/08/11 06:44:09;;;;;;;20.75;17.13;;;15.10;99.90;;;;;;5069384;28;20044;-71
2021/08/11 06:46:35;;;;;;;18.35;16.40;;;15.20;99.90;;;;;;5053706;28;20135;-71
2021/08/11 06:49:01;;;;;;;20.65;17.75;;;15.20;99.90;;;;;;5072729;28;20044;-71
2021/08/11 06:51:27;;;;;;;19.05;15.43;;;15.20;99.90;;;;;;5059836;28;20077;-71
2021/08/11 06:53:53;;;;;;;19.80;16.48;;;15.30;99.90;;;;;;5061493;28;20052;-71
2021/08/11 06:56:19;;;;;;;20.30;16.40;;;15.40;99.90;;;;;;5070335;28;20052;-71
2021/08/11 06:58:45;;;;;;;19.88;15.55;;;15.50;99.90;;;;;;5071195;28;20107;-73
2021/08/11 07:01:11;;;;;;;18.55;13.82;;;15.70;99.90;;;;;;5067832;28;20036;-71
2021/08/11 07:03:37;;;;;;;17.83;13.57;;;15.90;99.90;;;;;;5068620;28;20113;-71
2021/08/11 07:06:03;;;;;;;17.67;12.50;;;16.00;99.90;;;;;;5068653;28;20074;-71
2021/08/11 07:08:29;;;;;;;14.45;11.95;;;16.20;99.90;;;;;;5070304;28;20539;-72
2021/08/11 07:10:55;;;;;;;15.02;12.27;;;16.40;99.90;;;;;;5066223;28;20433;-71
2021/08/11 07:13:21;;;;;;;15.70;12.13;;;16.50;99.90;;;;;;5071771;28;20089;-71
2021/08/11 07:15:47;;;;;;;17.98;11.93;;;16.60;99.90;;;;;;5077318;28;20067;-71
2021/08/11 07:18:17;;;;;;;16.20;10.38;;;16.80;99.90;;;;;;5076096;28;20061;-71
2021/08/11 07:20:46;;;;;;;12.18;10.45;;;16.90;99.90;;;;;;5075887;28;20036;-72
2021/08/11 07:23:13;;;;;;;16.83;11.05;;;17.00;99.90;;;;;;5077379;28;20051;-71
2021/08/11 07:25:39;;;;;;;16.73;9.73;;;17.20;99.90;;;;;;5061312;28;20044;-71
2021/08/11 07:28:06;;;;;;;13.25;9.63;;;17.30;99.90;;;;;;5081515;28;20040;-70
2021/08/11 07:30:36;;;;;;;12.88;9.70;;;17.30;99.90;;;;;;5070781;28;20105;-71
2021/08/11 07:33:03;;;;;;;10.27;9.13;;;17.40;99.90;;;;;;5071447;28;20044;-71
2021/08/11 07:35:30;;;;;;;12.25;9.80;;;17.40;99.90;;;;;;5078031;28;20491;-71
2021/08/11 07:37:56;;;;;;;10.95;8.60;;;17.50;99.90;;;;;;5061966;28;20063;-71
2021/08/11 07:40:25;;;;;;;11.90;8.13;;;17.60;99.90;;;;;;5073296;28;20043;-71
2021/08/11 07:42:51;;;;;;;14.77;9.40;;;17.70;99.90;;;;;;5071358;28;20051;-72
2021/08/11 07:45:18;;;;;;;12.23;8.13;;;17.80;99.90;;;;;;5077286;28;20486;-72
2021/08/11 07:47:47;;;;;;;12.77;7.90;;;17.90;99.90;;;;;;5071527;28;20478;-72
2021/08/11 07:50:15;;;;;;;14.48;9.20;;;18.00;99.90;;;;;;5073085;28;20044;-72
2021/08/11 07:52:42;;;;;;;12.88;8.70;;;18.20;99.90;;;;;;5076317;28;20036;-71
2021/08/11 07:55:09;;;;;;;11.80;9.00;;;18.30;99.90;;;;;;5081124;28;20039;-71
2021/08/11 07:57:34;;;;;;;14.45;9.05;;;18.30;99.90;;;;;;5068147;28;20094;-72
2021/08/11 08:00:00;;;;;;;12.63;7.82;;;18.40;99.90;;;;;;5062615;28;20044;-71
2021/08/11 08:02:26;;;;;;;10.70;8.00;;;18.40;99.90;;;;;;5051575;28;20046;-72
2021/08/11 08:04:52;;;;;;;13.38;8.70;;;18.50;99.60;;;;;;5069815;28;20040;-71
2021/08/11 08:07:18;;;;;;;12.10;7.82;;;18.40;99.60;;;;;;5079882;28;20059;-71
2021/08/11 08:09:44;;;;;;;14.15;8.90;;;18.50;99.70;;;;;;5051360;28;20398;-71
2021/08/11 08:12:10;;;;;;;13.18;8.02;;;18.60;99.60;;;;;;5074767;28;20037;-73
2021/08/11 08:14:36;;;;;;;11.15;7.57;;;18.70;99.40;;;;;;5060988;28;20044;-70
2021/08/11 08:17:02;;;;;;;11.07;8.27;;;18.90;99.30;;;;;;5085431;28;20037;-70
2021/08/11 08:19:28;;;;;;;10.90;7.55;;;19.00;98.90;;;;;;5079640;28;20032;-72
2021/08/11 08:21:54;;;;;;;10.52;7.30;;;19.10;98.70;;;;;;5049339;28;20040;-72
2021/08/11 08:24:23;;;;;;;9.40;7.45;;;19.20;98.70;;;;;;5079275;28;20123;-73
2021/08/11 08:26:49;;;;;;;12.25;7.65;;;19.20;98.10;;;;;;5079989;28;20040;-71
2021/08/11 08:29:15;;;;;;;13.55;7.68;;;19.30;97.40;;;;;;5076782;28;20441;-71
2021/08/11 08:31:41;;;;;;;8.98;7.35;;;19.30;97.40;;;;;;5068651;28;20056;-72
2021/08/11 08:34:07;;;;;;;10.30;6.97;;;19.30;97.20;;;;;;5074068;28;20097;-72
2021/08/11 08:36:34;;;;;;;11.85;7.57;;;19.30;97.50;;;;;;5071254;28;20058;-72
2021/08/11 08:39:00;;;;;;;10.20;7.22;;;19.40;97.50;;;;;;5070104;28;20040;-72
2021/08/11 08:41:27;;;;;;;11.27;7.30;;;19.50;97.30;;;;;;5080904;28;20119;-72
2021/08/11 08:43:52;;;;;;;11.43;7.43;;;19.50;97.00;;;;;;5069531;28;20459;-72
2021/08/11 08:46:20;;;;;;;10.88;7.03;;;19.50;97.00;;;;;;5079343;28;20068;-73
2021/08/11 08:48:46;;;;;;;11.95;6.85;;;19.50;97.00;;;;;;5079948;28;20079;-71
2021/08/11 08:51:14;;;;;;;11.65;6.60;;;19.50;96.90;;;;;;5082946;28;20101;-72
2021/08/11 08:53:45;;;;;;;10.35;7.20;;;19.60;97.10;;;;;;5085299;28;20040;-71
2021/08/11 08:56:11;;;;;;;11.15;7.47;;;19.60;96.90;;;;;;5085480;28;20079;-72
2021/08/11 08:58:42;;;;;;;8.82;6.55;;;19.60;96.60;;;;;;5083909;28;20055;-72
2021/08/11 09:01:08;;;;;;;9.45;6.63;;;19.60;96.60;;;;;;5080555;28;20101;-71
2021/08/11 09:03:37;;;;;;;10.13;6.32;;;19.60;96.00;;;;;;5026860;28;20069;-72
2021/08/11 09:06:03;;;;;;;9.95;6.25;;;19.60;95.80;;;;;;5018748;28;20147;-73
2021/08/11 09:08:29;;;;;;;11.25;6.43;;;19.70;95.60;;;;;;5043362;28;20045;-72
2021/08/11 09:10:57;;;;;;;9.63;6.28;;;19.70;95.60;;;;;;5040142;28;20076;-72
2021/08/11 09:13:24;;;;;;;8.95;6.65;;;19.70;95.70;;;;;;5043290;28;20410;-72
2021/08/11 09:15:52;;;;;;;10.80;6.55;;;19.70;95.80;;;;;;5040387;28;20053;-73
2021/08/11 09:18:28;;;;;;;10.23;6.72;;;19.70;95.80;;;;;;5038830;28;20045;-73
2021/08/11 09:21:02;;;;;;;10.75;6.05;;;19.80;95.90;;;;;;5041880;28;20037;-72
2021/08/11 09:23:42;;;;;;;10.02;6.22;;;19.80;96.00;;;;;;5044044;28;20044;-72
2021/08/11 09:26:11;;;;;;;;;;;19.90;96.30;;;;;;5041851;28;20549;-73
2021/08/11 09:28:41;;;;;;;11.23;6.63;;;20.00;96.30;;;;;;5068511;28;20370;-73
2021/08/11 09:31:25;;;;;;;9.30;6.50;;;20.10;96.10;;;;;;5080157;28;20556;-73
2021/08/11 09:34:03;;;;;;;10.55;6.32;;;20.10;95.60;;;;;;5078517;28;20101;-73
2021/08/11 09:36:49;;;;;;;9.38;6.15;;;20.10;95.70;;;;;;5082140;28;20525;-70
2021/08/11 09:39:16;;;;;;;8.38;5.68;;;20.20;95.40;;;;;;5082937;28;20376;-70
2021/08/11 09:42:04;;;;;;;8.60;5.35;;;20.10;95.20;;;;;;5084690;28;20373;-71
2021/08/11 09:44:31;;;;;;;8.63;5.22;;;20.20;95.20;;;;;;5074676;28;20107;-71
2021/08/11 09:47:16;;;;;;;9.77;5.53;;;20.20;95.10;;;;;;5079017;28;20048;-70
2021/08/11 09:50:04;;;;;;;10.38;5.38;;;20.40;95.20;;;;;;5082648;28;20561;-71
2021/08/11 09:52:50;;;;;;;9.35;5.68;;;20.60;95.30;;;;;;5077079;28;20452;-71
2021/08/11 09:55:17;;;;;;;12.30;6.68;;;21.00;95.50;;;;;;5081368;28;20059;-70
2021/08/11 09:57:45;;;;;;;10.55;6.45;;;21.30;93.80;;;;;;5083771;28;20126;-71
2021/08/11 10:00:15;;;;;;;9.52;6.88;;;21.50;93.60;;;;;;5082418;28;20043;-72
2021/08/11 10:02:41;;;;;;;10.10;6.13;;;21.70;93.00;;;;;;5071342;28;20434;-72
2021/08/11 10:05:12;;;;;;;12.23;5.72;;;21.70;92.20;;;;;;5076822;28;20123;-71
2021/08/11 10:07:51;;;;;;;9.10;6.10;;;21.80;91.90;;;;;;5052157;28;20105;-71
2021/08/11 10:10:17;;;;;;;8.90;5.72;;;21.70;91.70;;;;;;5056769;28;20036;-71
2021/08/11 10:12:43;;;;;;;9.73;6.10;;;21.80;92.20;;;;;;5081582;28;20487;-71
2021/08/11 10:15:09;;;;;;;10.00;6.40;;;21.80;92.20;;;;;;5078791;28;20390;-71
2021/08/11 10:17:36;;;;;;;9.70;5.88;;;21.90;92.20;;;;;;5074306;28;20106;-71
2021/08/11 10:20:06;;;;;;;7.47;5.00;;;22.10;92.20;;;;;;5062594;28;20032;-71
2021/08/11 10:22:32;;;;;;;9.32;5.63;;;22.30;91.80;;;;;;5069609;28;20830;-72
2021/08/11 10:24:59;;;;;;;8.75;5.40;;;22.40;91.40;;;;;;5081591;28;20041;-71
2021/08/11 10:27:26;;;;;;;6.72;4.50;;;22.50;90.50;;;;;;5076921;28;20037;-72
2021/08/11 10:29:53;;;;;;;8.23;5.82;;;22.60;90.50;;;;;;5077229;28;20045;-71
2021/08/11 10:32:21;;;;;;;9.48;6.05;;;22.70;90.70;;;;;;5082038;28;20032;-72
2021/08/11 10:34:47;;;;;;;8.05;5.30;;;22.70;89.40;;;;;;5083379;28;20048;-72
2021/08/11 10:37:14;;;;;;;8.70;4.50;;;22.60;90.00;;;;;;5082968;28;20107;-71
2021/08/11 10:39:41;;;;;;;8.65;5.75;;;22.60;90.70;;;;;;5079454;28;20128;-72
2021/08/11 10:42:12;;;;;;;7.82;4.72;;;22.60;90.60;;;;;;5073506;28;20583;-73
2021/08/11 10:44:41;;;;;;;8.65;5.05;;;22.70;90.40;;;;;;5071985;28;20045;-72
2021/08/11 10:47:09;;;;;;;9.43;5.13;;;22.70;90.50;;;;;;5070201;28;20032;-72
2021/08/11 10:50:02;;;;;;;8.65;5.07;;;22.60;89.80;;;;;;5079123;28;20098;-72
2021/08/11 10:52:29;;;;;;;10.40;5.80;;;22.60;90.10;;;;;;5074197;28;20088;-72
2021/08/11 10:55:00;;;;;;;9.02;4.82;;;22.70;88.80;;;;;;5076179;28;20040;-72
2021/08/11 10:57:37;;;;;;;8.13;4.57;;;22.80;89.70;;;;;;5076124;28;20044;-71
2021/08/11 11:00:21;;;;;;;7.32;4.38;;;22.80;89.00;;;;;;5072178;28;20068;-72
2021/08/11 11:02:52;;;;;;;9.77;5.80;;;22.90;90.00;;;;;;5077391;28;20041;-73
2021/08/11 11:05:21;;;;;;;8.20;5.22;;;22.90;88.20;;;;;;5080166;28;20111;-74
2021/08/11 11:08:15;;;;;;;7.40;4.47;;;23.00;88.70;;;;;;5074595;28;20052;-73
2021/08/11 11:10:44;;;;;;;8.40;5.00;;;23.10;89.90;;;;;;5076088;28;20152;-73
2021/08/11 11:13:26;;;;;;;7.22;5.10;;;23.20;89.60;;;;;;5081637;28;20124;-72
2021/08/11 11:15:54;;;;;;;6.72;4.22;;;23.30;87.70;;;;;;5080626;28;20039;-72
2021/08/11 11:18:21;;;;;;;6.05;4.30;;;23.40;88.70;;;;;;5077146;28;20036;-72
2021/08/11 11:21:10;;;;;;;7.60;4.95;;;23.50;87.90;;;;;;5072491;28;20044;-72
2021/08/11 11:23:38;;;;;;;8.88;4.78;;;23.60;87.60;;;;;;5069840;28;20550;-72
2021/08/11 11:26:15;;;;;;;7.78;4.15;;;23.80;87.70;;;;;;5074289;28;20044;-74
2021/08/11 11:28:54;;;;;;;9.65;3.70;;;23.80;87.20;;;;;;5075398;28;20040;-72
2021/08/11 11:31:41;;;;;;;5.97;4.03;;;23.90;86.50;;;;;;5079175;28;20964;-72
2021/08/11 11:34:22;;;;;;;7.55;4.13;;;23.80;83.60;;;;;;5076472;28;20057;-73
2021/08/11 11:36:58;;;;;;;6.80;4.55;;;23.60;85.10;;;;;;5075465;28;20523;-71
2021/08/11 11:39:54;;;;;;;5.65;3.45;;;23.60;86.30;;;;;;5077805;28;20467;-72
2021/08/11 11:42:27;;;;;;;8.52;4.35;;;23.60;88.10;;;;;;5079044;28;20140;-73
2021/08/11 11:45:00;;;;;;;7.30;3.28;;;23.70;88.10;;;;;;5081032;28;20040;-74
2021/08/11 11:47:42;;;;;;;6.90;3.15;;;23.80;86.70;;;;;;5072471;28;20044;-71
2021/08/11 11:50:24;;;;;;;6.28;3.30;;;24.00;82.40;;;;;;5074589;28;20040;-72
2021/08/11 11:53:01;;;;;;;4.97;2.80;;;24.10;85.00;;;;;;5072165;28;20462;-72
2021/08/11 11:55:31;;;;;;;7.90;3.50;;;24.30;82.70;;;;;;5078937;28;20040;-72
2021/08/11 11:58:01;;;;;;;6.35;3.65;;;24.50;81.10;;;;;;5073992;28;20030;-72
2021/08/11 12:00:27;;;;;;;7.65;3.17;;;24.60;82.50;;;;;;5078580;28;20067;-72
2021/08/11 12:02:54;;;;;;;5.70;3.15;;;24.70;81.80;;;;;;5060053;28;20101;-72
2021/08/11 12:05:21;;;;;;;7.35;4.15;;;24.70;80.70;;;;;;5062778;28;20036;-72
2021/08/11 12:07:48;;;;;;;5.00;3.47;;;24.80;79.80;;;;;;5084533;28;20044;-72
2021/08/11 12:10:26;;;;;;;4.88;3.05;;;24.70;79.80;;;;;;5065507;28;20855;-71
2021/08/11 12:13:01;;;;;;;5.47;3.42;;;24.70;76.00;;;;;;5077882;28;20043;-72
2021/08/11 12:15:41;;;;;;;6.15;3.35;;;24.80;79.30;;;;;;5072552;28;20040;-71
2021/08/11 12:18:19;;;;;;;4.63;2.72;;;24.90;78.80;;;;;;5074732;28;20043;-72
2021/08/11 12:20:54;;;;;;;5.07;2.70;;;24.90;76.50;;;;;;5079287;28;20044;-72
2021/08/11 12:23:26;;;;;;;4.35;2.83;;;24.90;77.20;;;;;;5075039;28;20725;-72
2021/08/11 12:25:53;;;;;;;4.90;2.88;;;25.00;77.20;;;;;;5071471;28;20094;-72
2021/08/11 12:28:24;;;;;;;4.30;2.70;;;25.00;77.30;;;;;;5081947;28;20043;-72
2021/08/11 12:30:59;;;;;;;15.70;5.20;;;25.10;78.80;;;;;;5079465;28;20032;-72
2021/08/11 12:33:28;;;;;;;9.07;3.95;;;25.10;79.70;;;;;;5074678;28;20087;-72
2021/08/11 12:35:55;;;;;;;6.97;2.92;;;25.10;78.10;;;;;;5065690;28;20064;-74
2021/08/11 12:38:35;;;;;;;6.25;2.70;;;25.10;74.00;;;;;;5074463;28;20074;-73
2021/08/11 12:41:19;;;;;;;4.43;3.08;;;25.10;78.00;;;;;;5069096;28;20036;-73
2021/08/11 12:43:49;;;;;;;7.00;2.95;;;25.20;78.80;;;;;;5086201;28;20040;-73
2021/08/11 12:46:16;;;;;;;6.38;3.25;;;25.00;76.90;;;;;;5068055;28;20040;-73